sensor_id;sensor_type;location;lat;lon;timestamp;P1;durP1;ratioP1;P2;durP2;ratioP2
49458;SDS011;35354;51.296;16.924;2023-06-24T00:00:43;22.33;;;19.77;;
49458;SDS011;35354;51.296;16.924;2023-06-24T00:03:08;24.98;;;21.58;;
49458;SDS011;35354;51.296;16.924;2023-06-24T00:05:34;22.20;;;19.40;;
49458;SDS011;35354;51.296;16.924;2023-06-24T00:07:59;22.55;;;18.83;;
49458;SDS011;35354;51.296;16.924;2023-06-24T00:10:27;25.75;;;18.02;;
49458;SDS011;35354;51.296;16.924;2023-06-24T00:12:53;19.58;;;17.55;;
49458;SDS011;35354;51.296;16.924;2023-06-24T00:15:18;20.17;;;16.80;;
49458;SDS011;35354;51.296;16.924;2023-06-24T00:17:43;19.70;;;17.40;;
49458;SDS011;35354;51.296;16.924;2023-06-24T00:20:09;17.55;;;15.75;;
49458;SDS011;35354;51.296;16.924;2023-06-24T00:22:38;17.00;;;15.18;;
49458;SDS011;35354;51.296;16.924;2023-06-24T00:25:09;18.20;;;16.38;;
49458;SDS011;35354;51.296;16.924;2023-06-24T00:27:34;15.93;;;13.70;;
49458;SDS011;35354;51.296;16.924;2023-06-24T00:30:00;17.70;;;14.60;;
49458;SDS011;35354;51.296;16.924;2023-06-24T00:32:25;18.42;;;14.18;;
49458;SDS011;35354;51.296;16.924;2023-06-24T00:34:50;14.27;;;12.80;;
49458;SDS011;35354;51.296;16.924;2023-06-24T00:37:16;14.20;;;12.23;;
49458;SDS011;35354;51.296;16.924;2023-06-24T00:39:41;13.07;;;11.68;;
49458;SDS011;35354;51.296;16.924;2023-06-24T00:42:06;12.75;;;11.35;;
49458;SDS011;35354;51.296;16.924;2023-06-24T00:44:32;12.50;;;10.90;;
49458;SDS011;35354;51.296;16.924;2023-06-24T00:46:57;12.65;;;10.75;;
49458;SDS011;35354;51.296;16.924;2023-06-24T00:49:22;10.27;;;9.30;;
49458;SDS011;35354;51.296;16.924;2023-06-24T00:51:48;10.07;;;7.45;;
49458;SDS011;35354;51.296;16.924;2023-06-24T00:54:16;6.60;;;6.00;;
49458;SDS011;35354;51.296;16.924;2023-06-24T00:56:44;6.55;;;5.85;;
49458;SDS011;35354;51.296;16.924;2023-06-24T00:59:12;6.65;;;6.00;;
49458;SDS011;35354;51.296;16.924;2023-06-24T01:01:39;9.05;;;7.30;;
49458;SDS011;35354;51.296;16.924;2023-06-24T01:04:06;8.18;;;7.38;;
49458;SDS011;35354;51.296;16.924;2023-06-24T01:06:31;9.57;;;8.65;;
49458;SDS011;35354;51.296;16.924;2023-06-24T01:08:58;9.30;;;8.18;;
49458;SDS011;35354;51.296;16.924;2023-06-24T01:11:25;11.40;;;9.52;;
49458;SDS011;35354;51.296;16.924;2023-06-24T01:13:56;11.20;;;9.27;;
49458;SDS011;35354;51.296;16.924;2023-06-24T01:18:55;13.45;;;10.57;;
49458;SDS011;35354;51.296;16.924;2023-06-24T01:27:39;11.73;;;10.07;;
49458;SDS011;35354;51.296;16.924;2023-06-24T01:30:22;12.13;;;10.82;;
49458;SDS011;35354;51.296;16.924;2023-06-24T01:33:13;11.55;;;9.50;;
49458;SDS011;35354;51.296;16.924;2023-06-24T01:35:44;16.08;;;11.48;;
49458;SDS011;35354;51.296;16.924;2023-06-24T01:38:18;11.88;;;9.73;;
49458;SDS011;35354;51.296;16.924;2023-06-24T01:40:48;11.27;;;9.85;;
49458;SDS011;35354;51.296;16.924;2023-06-24T01:43:15;11.82;;;10.57;;
49458;SDS011;35354;51.296;16.924;2023-06-24T01:45:42;11.98;;;10.77;;
49458;SDS011;35354;51.296;16.924;2023-06-24T01:48:16;9.52;;;8.55;;
49458;SDS011;35354;51.296;16.924;2023-06-24T01:53:43;14.73;;;10.43;;
49458;SDS011;35354;51.296;16.924;2023-06-24T01:56:13;11.75;;;10.13;;
49458;SDS011;35354;51.296;16.924;2023-06-24T01:58:41;10.25;;;9.15;;
49458;SDS011;35354;51.296;16.924;2023-06-24T02:01:08;12.80;;;9.95;;
49458;SDS011;35354;51.296;16.924;2023-06-24T02:03:35;11.43;;;8.93;;
49458;SDS011;35354;51.296;16.924;2023-06-24T02:06:01;12.00;;;8.35;;
49458;SDS011;35354;51.296;16.924;2023-06-24T02:08:32;12.02;;;9.52;;
49458;SDS011;35354;51.296;16.924;2023-06-24T02:11:00;11.15;;;9.75;;
49458;SDS011;35354;51.296;16.924;2023-06-24T02:13:27;9.70;;;8.57;;
49458;SDS011;35354;51.296;16.924;2023-06-24T02:15:57;11.07;;;9.07;;
49458;SDS011;35354;51.296;16.924;2023-06-24T02:18:25;11.70;;;9.38;;
49458;SDS011;35354;51.296;16.924;2023-06-24T02:20:52;13.52;;;9.38;;
49458;SDS011;35354;51.296;16.924;2023-06-24T02:23:19;9.40;;;8.02;;
49458;SDS011;35354;51.296;16.924;2023-06-24T02:25:46;10.30;;;8.43;;
49458;SDS011;35354;51.296;16.924;2023-06-24T02:28:12;8.85;;;7.95;;
49458;SDS011;35354;51.296;16.924;2023-06-24T02:30:39;10.52;;;8.68;;
49458;SDS011;35354;51.296;16.924;2023-06-24T02:33:05;10.05;;;8.95;;
49458;SDS011;35354;51.296;16.924;2023-06-24T02:35:31;10.63;;;8.52;;
49458;SDS011;35354;51.296;16.924;2023-06-24T02:37:57;9.38;;;8.32;;
49458;SDS011;35354;51.296;16.924;2023-06-24T02:40:22;9.63;;;8.52;;
49458;SDS011;35354;51.296;16.924;2023-06-24T02:42:47;10.07;;;8.50;;
49458;SDS011;35354;51.296;16.924;2023-06-24T02:45:13;12.07;;;8.73;;
49458;SDS011;35354;51.296;16.924;2023-06-24T02:47:40;16.02;;;9.95;;
49458;SDS011;35354;51.296;16.924;2023-06-24T02:50:10;11.50;;;9.13;;
49458;SDS011;35354;51.296;16.924;2023-06-24T02:52:36;11.95;;;10.65;;
49458;SDS011;35354;51.296;16.924;2023-06-24T02:55:02;11.23;;;10.02;;
49458;SDS011;35354;51.296;16.924;2023-06-24T02:57:28;10.50;;;9.50;;
49458;SDS011;35354;51.296;16.924;2023-06-24T02:59:54;14.05;;;10.18;;
49458;SDS011;35354;51.296;16.924;2023-06-24T03:02:20;11.50;;;10.32;;
49458;SDS011;35354;51.296;16.924;2023-06-24T03:04:47;11.77;;;9.63;;
49458;SDS011;35354;51.296;16.924;2023-06-24T03:07:15;13.93;;;10.18;;
49458;SDS011;35354;51.296;16.924;2023-06-24T03:09:41;12.18;;;10.27;;
49458;SDS011;35354;51.296;16.924;2023-06-24T03:12:07;10.25;;;9.15;;
49458;SDS011;35354;51.296;16.924;2023-06-24T03:14:32;11.48;;;9.48;;
49458;SDS011;35354;51.296;16.924;2023-06-24T03:16:58;10.32;;;9.32;;
49458;SDS011;35354;51.296;16.924;2023-06-24T03:19:23;11.82;;;9.50;;
49458;SDS011;35354;51.296;16.924;2023-06-24T03:21:48;10.55;;;9.15;;
49458;SDS011;35354;51.296;16.924;2023-06-24T03:24:14;16.40;;;10.82;;
49458;SDS011;35354;51.296;16.924;2023-06-24T03:26:39;12.65;;;10.68;;
49458;SDS011;35354;51.296;16.924;2023-06-24T03:29:05;10.50;;;8.57;;
49458;SDS011;35354;51.296;16.924;2023-06-24T03:31:32;9.80;;;8.82;;
49458;SDS011;35354;51.296;16.924;2023-06-24T03:33:58;9.98;;;7.93;;
49458;SDS011;35354;51.296;16.924;2023-06-24T03:36:23;9.65;;;8.70;;
49458;SDS011;35354;51.296;16.924;2023-06-24T03:38:49;9.63;;;8.38;;
49458;SDS011;35354;51.296;16.924;2023-06-24T03:41:15;7.85;;;6.88;;
49458;SDS011;35354;51.296;16.924;2023-06-24T03:43:40;8.13;;;7.35;;
49458;SDS011;35354;51.296;16.924;2023-06-24T03:46:06;8.00;;;6.80;;
49458;SDS011;35354;51.296;16.924;2023-06-24T03:48:32;8.60;;;6.65;;
49458;SDS011;35354;51.296;16.924;2023-06-24T03:50:58;7.75;;;6.95;;
49458;SDS011;35354;51.296;16.924;2023-06-24T03:53:23;7.20;;;6.38;;
49458;SDS011;35354;51.296;16.924;2023-06-24T03:55:48;7.53;;;6.30;;
49458;SDS011;35354;51.296;16.924;2023-06-24T03:58:14;7.25;;;6.05;;
49458;SDS011;35354;51.296;16.924;2023-06-24T04:00:41;8.80;;;6.72;;
49458;SDS011;35354;51.296;16.924;2023-06-24T04:03:09;6.70;;;5.78;;
49458;SDS011;35354;51.296;16.924;2023-06-24T04:05:35;6.50;;;5.85;;
49458;SDS011;35354;51.296;16.924;2023-06-24T04:08:00;8.30;;;6.57;;
49458;SDS011;35354;51.296;16.924;2023-06-24T04:10:25;8.40;;;6.50;;
49458;SDS011;35354;51.296;16.924;2023-06-24T04:12:51;9.65;;;6.50;;
49458;SDS011;35354;51.296;16.924;2023-06-24T04:15:16;7.82;;;6.20;;
49458;SDS011;35354;51.296;16.924;2023-06-24T04:17:42;8.70;;;6.13;;
49458;SDS011;35354;51.296;16.924;2023-06-24T04:20:07;8.75;;;5.57;;
49458;SDS011;35354;51.296;16.924;2023-06-24T04:22:36;7.63;;;6.45;;
49458;SDS011;35354;51.296;16.924;2023-06-24T04:25:03;6.57;;;5.97;;
49458;SDS011;35354;51.296;16.924;2023-06-24T04:27:30;7.75;;;6.30;;
49458;SDS011;35354;51.296;16.924;2023-06-24T04:29:56;8.00;;;6.22;;
49458;SDS011;35354;51.296;16.924;2023-06-24T04:32:21;10.35;;;6.10;;
49458;SDS011;35354;51.296;16.924;2023-06-24T04:34:47;8.93;;;6.68;;
49458;SDS011;35354;51.296;16.924;2023-06-24T04:37:12;7.43;;;6.70;;
49458;SDS011;35354;51.296;16.924;2023-06-24T04:39:37;6.72;;;6.03;;
49458;SDS011;35354;51.296;16.924;2023-06-24T04:42:03;8.60;;;7.78;;
49458;SDS011;35354;51.296;16.924;2023-06-24T04:44:29;8.70;;;7.40;;
49458;SDS011;35354;51.296;16.924;2023-06-24T04:46:54;7.40;;;6.70;;
49458;SDS011;35354;51.296;16.924;2023-06-24T04:49:19;9.02;;;7.75;;
49458;SDS011;35354;51.296;16.924;2023-06-24T04:51:45;6.28;;;5.68;;
49458;SDS011;35354;51.296;16.924;2023-06-24T04:54:10;7.00;;;5.60;;
49458;SDS011;35354;51.296;16.924;2023-06-24T04:56:37;8.15;;;6.22;;
49458;SDS011;35354;51.296;16.924;2023-06-24T04:59:02;7.57;;;6.45;;
49458;SDS011;35354;51.296;16.924;2023-06-24T05:01:28;8.60;;;6.97;;
49458;SDS011;35354;51.296;16.924;2023-06-24T05:03:53;7.93;;;5.88;;
49458;SDS011;35354;51.296;16.924;2023-06-24T05:06:18;7.63;;;6.20;;
49458;SDS011;35354;51.296;16.924;2023-06-24T05:08:44;9.25;;;6.15;;
49458;SDS011;35354;51.296;16.924;2023-06-24T05:11:09;6.65;;;6.00;;
49458;SDS011;35354;51.296;16.924;2023-06-24T05:13:34;7.18;;;6.47;;
49458;SDS011;35354;51.296;16.924;2023-06-24T05:16:00;6.57;;;5.97;;
49458;SDS011;35354;51.296;16.924;2023-06-24T05:18:25;6.43;;;5.82;;
49458;SDS011;35354;51.296;16.924;2023-06-24T05:20:50;8.82;;;5.50;;
49458;SDS011;35354;51.296;16.924;2023-06-24T05:23:16;9.70;;;6.78;;
49458;SDS011;35354;51.296;16.924;2023-06-24T05:25:41;7.68;;;6.97;;
49458;SDS011;35354;51.296;16.924;2023-06-24T05:28:06;7.63;;;6.18;;
49458;SDS011;35354;51.296;16.924;2023-06-24T05:30:32;7.93;;;7.00;;
49458;SDS011;35354;51.296;16.924;2023-06-24T05:32:57;8.23;;;7.43;;
49458;SDS011;35354;51.296;16.924;2023-06-24T05:35:22;8.23;;;7.28;;
49458;SDS011;35354;51.296;16.924;2023-06-24T05:37:48;7.82;;;7.03;;
49458;SDS011;35354;51.296;16.924;2023-06-24T05:40:13;7.63;;;6.70;;
49458;SDS011;35354;51.296;16.924;2023-06-24T05:42:38;8.32;;;7.50;;
49458;SDS011;35354;51.296;16.924;2023-06-24T05:45:04;9.15;;;6.93;;
49458;SDS011;35354;51.296;16.924;2023-06-24T05:47:31;8.77;;;7.13;;
49458;SDS011;35354;51.296;16.924;2023-06-24T05:49:56;9.82;;;7.68;;
49458;SDS011;35354;51.296;16.924;2023-06-24T05:52:23;8.80;;;7.90;;
49458;SDS011;35354;51.296;16.924;2023-06-24T05:54:48;9.48;;;8.00;;
49458;SDS011;35354;51.296;16.924;2023-06-24T05:57:13;9.10;;;7.50;;
49458;SDS011;35354;51.296;16.924;2023-06-24T05:59:39;12.00;;;7.45;;
49458;SDS011;35354;51.296;16.924;2023-06-24T06:02:04;9.45;;;7.50;;
49458;SDS011;35354;51.296;16.924;2023-06-24T06:04:30;8.85;;;7.95;;
49458;SDS011;35354;51.296;16.924;2023-06-24T06:06:55;9.52;;;7.82;;
49458;SDS011;35354;51.296;16.924;2023-06-24T06:09:21;9.45;;;7.57;;
49458;SDS011;35354;51.296;16.924;2023-06-24T06:11:47;10.85;;;8.15;;
49458;SDS011;35354;51.296;16.924;2023-06-24T06:14:13;9.80;;;8.10;;
49458;SDS011;35354;51.296;16.924;2023-06-24T06:16:38;10.63;;;8.50;;
49458;SDS011;35354;51.296;16.924;2023-06-24T06:19:04;12.80;;;9.40;;
49458;SDS011;35354;51.296;16.924;2023-06-24T06:21:29;14.38;;;8.20;;
49458;SDS011;35354;51.296;16.924;2023-06-24T06:23:54;9.10;;;8.20;;
49458;SDS011;35354;51.296;16.924;2023-06-24T06:26:20;9.85;;;8.85;;
49458;SDS011;35354;51.296;16.924;2023-06-24T06:28:46;11.27;;;9.48;;
49458;SDS011;35354;51.296;16.924;2023-06-24T06:31:13;10.30;;;8.88;;
49458;SDS011;35354;51.296;16.924;2023-06-24T06:33:38;10.27;;;9.27;;
49458;SDS011;35354;51.296;16.924;2023-06-24T06:36:04;13.00;;;9.77;;
49458;SDS011;35354;51.296;16.924;2023-06-24T06:38:29;11.63;;;10.43;;
49458;SDS011;35354;51.296;16.924;2023-06-24T06:40:54;11.38;;;10.02;;
49458;SDS011;35354;51.296;16.924;2023-06-24T06:43:20;11.82;;;10.32;;
49458;SDS011;35354;51.296;16.924;2023-06-24T06:45:46;12.07;;;10.40;;
49458;SDS011;35354;51.296;16.924;2023-06-24T06:48:11;10.98;;;9.88;;
49458;SDS011;35354;51.296;16.924;2023-06-24T06:50:37;12.32;;;9.55;;
49458;SDS011;35354;51.296;16.924;2023-06-24T06:53:02;13.48;;;10.98;;
49458;SDS011;35354;51.296;16.924;2023-06-24T06:55:27;13.55;;;11.15;;
49458;SDS011;35354;51.296;16.924;2023-06-24T06:57:53;12.25;;;11.05;;
49458;SDS011;35354;51.296;16.924;2023-06-24T07:00:18;12.40;;;11.10;;
49458;SDS011;35354;51.296;16.924;2023-06-24T07:02:44;11.90;;;10.65;;
49458;SDS011;35354;51.296;16.924;2023-06-24T07:05:09;11.18;;;10.07;;
49458;SDS011;35354;51.296;16.924;2023-06-24T07:07:36;11.40;;;10.30;;
49458;SDS011;35354;51.296;16.924;2023-06-24T07:10:03;13.25;;;11.50;;
49458;SDS011;35354;51.296;16.924;2023-06-24T07:12:28;11.23;;;10.02;;
49458;SDS011;35354;51.296;16.924;2023-06-24T07:14:53;13.18;;;11.23;;
49458;SDS011;35354;51.296;16.924;2023-06-24T07:17:19;14.38;;;12.20;;
49458;SDS011;35354;51.296;16.924;2023-06-24T07:19:44;12.38;;;10.68;;
49458;SDS011;35354;51.296;16.924;2023-06-24T07:22:10;12.38;;;11.07;;
49458;SDS011;35354;51.296;16.924;2023-06-24T07:24:35;13.45;;;10.85;;
49458;SDS011;35354;51.296;16.924;2023-06-24T07:27:00;13.05;;;11.00;;
49458;SDS011;35354;51.296;16.924;2023-06-24T07:29:26;11.60;;;10.07;;
49458;SDS011;35354;51.296;16.924;2023-06-24T07:31:51;10.93;;;9.82;;
49458;SDS011;35354;51.296;16.924;2023-06-24T07:34:16;11.25;;;10.07;;
49458;SDS011;35354;51.296;16.924;2023-06-24T07:36:42;11.25;;;10.02;;
49458;SDS011;35354;51.296;16.924;2023-06-24T07:39:07;11.73;;;10.05;;
49458;SDS011;35354;51.296;16.924;2023-06-24T07:41:32;11.30;;;9.82;;
49458;SDS011;35354;51.296;16.924;2023-06-24T07:43:58;11.63;;;10.20;;
49458;SDS011;35354;51.296;16.924;2023-06-24T07:46:23;11.65;;;10.43;;
49458;SDS011;35354;51.296;16.924;2023-06-24T07:48:52;12.18;;;10.70;;
49458;SDS011;35354;51.296;16.924;2023-06-24T07:51:17;11.25;;;10.13;;
49458;SDS011;35354;51.296;16.924;2023-06-24T07:53:43;12.48;;;10.25;;
49458;SDS011;35354;51.296;16.924;2023-06-24T07:56:08;11.68;;;10.57;;
49458;SDS011;35354;51.296;16.924;2023-06-24T07:58:33;13.18;;;11.80;;
49458;SDS011;35354;51.296;16.924;2023-06-24T08:01:00;14.75;;;13.10;;
49458;SDS011;35354;51.296;16.924;2023-06-24T08:03:25;14.13;;;12.73;;
49458;SDS011;35354;51.296;16.924;2023-06-24T08:05:50;16.23;;;14.65;;
49458;SDS011;35354;51.296;16.924;2023-06-24T08:08:16;16.10;;;14.43;;
49458;SDS011;35354;51.296;16.924;2023-06-24T08:10:43;15.95;;;14.35;;
49458;SDS011;35354;51.296;16.924;2023-06-24T08:13:08;16.38;;;14.82;;
49458;SDS011;35354;51.296;16.924;2023-06-24T08:15:34;16.35;;;14.63;;
49458;SDS011;35354;51.296;16.924;2023-06-24T08:17:59;15.80;;;14.23;;
49458;SDS011;35354;51.296;16.924;2023-06-24T08:20:25;16.75;;;13.88;;
49458;SDS011;35354;51.296;16.924;2023-06-24T08:22:50;15.70;;;14.10;;
49458;SDS011;35354;51.296;16.924;2023-06-24T08:25:16;15.52;;;13.98;;
49458;SDS011;35354;51.296;16.924;2023-06-24T08:27:41;16.08;;;14.32;;
49458;SDS011;35354;51.296;16.924;2023-06-24T08:30:11;15.77;;;13.90;;
49458;SDS011;35354;51.296;16.924;2023-06-24T08:32:37;15.50;;;14.00;;
49458;SDS011;35354;51.296;16.924;2023-06-24T08:35:02;15.27;;;13.68;;
49458;SDS011;35354;51.296;16.924;2023-06-24T08:37:28;15.05;;;13.48;;
49458;SDS011;35354;51.296;16.924;2023-06-24T08:39:53;17.00;;;15.00;;
49458;SDS011;35354;51.296;16.924;2023-06-24T08:42:18;15.80;;;13.77;;
49458;SDS011;35354;51.296;16.924;2023-06-24T08:44:44;14.52;;;12.98;;
49458;SDS011;35354;51.296;16.924;2023-06-24T08:47:09;14.50;;;13.00;;
49458;SDS011;35354;51.296;16.924;2023-06-24T08:49:37;15.25;;;13.32;;
49458;SDS011;35354;51.296;16.924;2023-06-24T08:52:12;16.23;;;14.32;;
49458;SDS011;35354;51.296;16.924;2023-06-24T08:54:40;15.75;;;14.25;;
49458;SDS011;35354;51.296;16.924;2023-06-24T08:57:06;15.05;;;13.52;;
49458;SDS011;35354;51.296;16.924;2023-06-24T08:59:33;15.23;;;13.40;;
49458;SDS011;35354;51.296;16.924;2023-06-24T09:01:59;16.52;;;14.82;;
49458;SDS011;35354;51.296;16.924;2023-06-24T09:04:25;15.48;;;13.93;;
49458;SDS011;35354;51.296;16.924;2023-06-24T09:06:50;17.63;;;15.05;;
49458;SDS011;35354;51.296;16.924;2023-06-24T09:09:22;16.15;;;14.15;;
49458;SDS011;35354;51.296;16.924;2023-06-24T09:17:06;15.65;;;13.02;;
49458;SDS011;35354;51.296;16.924;2023-06-24T09:19:32;18.00;;;14.65;;
49458;SDS011;35354;51.296;16.924;2023-06-24T09:22:01;17.02;;;15.32;;
49458;SDS011;35354;51.296;16.924;2023-06-24T09:24:29;18.33;;;16.30;;
49458;SDS011;35354;51.296;16.924;2023-06-24T09:26:56;16.95;;;14.77;;
49458;SDS011;35354;51.296;16.924;2023-06-24T09:29:28;14.57;;;13.18;;
49458;SDS011;35354;51.296;16.924;2023-06-24T09:31:56;16.35;;;14.02;;
49458;SDS011;35354;51.296;16.924;2023-06-24T09:34:24;14.70;;;13.30;;
49458;SDS011;35354;51.296;16.924;2023-06-24T09:36:53;15.75;;;13.70;;
49458;SDS011;35354;51.296;16.924;2023-06-24T09:39:20;15.68;;;14.07;;
49458;SDS011;35354;51.296;16.924;2023-06-24T09:41:52;17.23;;;13.95;;
49458;SDS011;35354;51.296;16.924;2023-06-24T09:44:18;14.68;;;13.27;;
49458;SDS011;35354;51.296;16.924;2023-06-24T09:46:46;14.52;;;13.00;;
49458;SDS011;35354;51.296;16.924;2023-06-24T09:49:12;14.90;;;13.50;;
49458;SDS011;35354;51.296;16.924;2023-06-24T09:51:38;15.18;;;13.57;;
49458;SDS011;35354;51.296;16.924;2023-06-24T09:54:05;14.50;;;13.10;;
49458;SDS011;35354;51.296;16.924;2023-06-24T09:56:33;15.18;;;13.70;;
49458;SDS011;35354;51.296;16.924;2023-06-24T09:59:01;14.88;;;13.43;;
49458;SDS011;35354;51.296;16.924;2023-06-24T10:01:29;13.88;;;12.32;;
49458;SDS011;35354;51.296;16.924;2023-06-24T10:03:57;15.68;;;14.07;;
49458;SDS011;35354;51.296;16.924;2023-06-24T10:06:23;14.07;;;12.68;;
49458;SDS011;35354;51.296;16.924;2023-06-24T10:08:50;14.93;;;13.43;;
49458;SDS011;35354;51.296;16.924;2023-06-24T10:11:16;14.13;;;12.82;;
49458;SDS011;35354;51.296;16.924;2023-06-24T10:13:41;13.40;;;12.18;;
49458;SDS011;35354;51.296;16.924;2023-06-24T10:16:07;14.15;;;12.82;;
49458;SDS011;35354;51.296;16.924;2023-06-24T10:18:33;13.68;;;12.25;;
49458;SDS011;35354;51.296;16.924;2023-06-24T10:21:03;17.15;;;12.95;;
49458;SDS011;35354;51.296;16.924;2023-06-24T10:23:30;12.55;;;11.27;;
49458;SDS011;35354;51.296;16.924;2023-06-24T10:26:08;12.93;;;10.32;;
49458;SDS011;35354;51.296;16.924;2023-06-24T10:36:58;12.63;;;10.68;;
49458;SDS011;35354;51.296;16.924;2023-06-24T10:39:40;9.95;;;8.95;;
49458;SDS011;35354;51.296;16.924;2023-06-24T10:47:51;11.73;;;9.85;;
49458;SDS011;35354;51.296;16.924;2023-06-24T10:50:25;10.40;;;9.40;;
49458;SDS011;35354;51.296;16.924;2023-06-24T10:52:51;10.73;;;9.73;;
49458;SDS011;35354;51.296;16.924;2023-06-24T10:55:22;12.57;;;10.37;;
49458;SDS011;35354;51.296;16.924;2023-06-24T10:57:49;9.70;;;8.70;;
49458;SDS011;35354;51.296;16.924;2023-06-24T11:00:15;10.48;;;9.23;;
49458;SDS011;35354;51.296;16.924;2023-06-24T11:02:40;10.20;;;9.20;;
49458;SDS011;35354;51.296;16.924;2023-06-24T11:05:06;10.35;;;9.35;;
49458;SDS011;35354;51.296;16.924;2023-06-24T11:07:33;10.38;;;9.07;;
49458;SDS011;35354;51.296;16.924;2023-06-24T11:10:04;10.05;;;9.13;;
49458;SDS011;35354;51.296;16.924;2023-06-24T11:12:34;16.80;;;9.43;;
49458;SDS011;35354;51.296;16.924;2023-06-24T11:15:03;9.63;;;8.77;;
49458;SDS011;35354;51.296;16.924;2023-06-24T11:17:29;9.85;;;8.85;;
49458;SDS011;35354;51.296;16.924;2023-06-24T11:19:56;9.80;;;8.80;;
49458;SDS011;35354;51.296;16.924;2023-06-24T11:22:22;9.30;;;8.40;;
49458;SDS011;35354;51.296;16.924;2023-06-24T11:24:49;8.57;;;7.38;;
49458;SDS011;35354;51.296;16.924;2023-06-24T11:27:14;10.23;;;8.70;;
49458;SDS011;35354;51.296;16.924;2023-06-24T11:29:40;9.43;;;8.57;;
49458;SDS011;35354;51.296;16.924;2023-06-24T11:32:08;10.43;;;9.27;;
49458;SDS011;35354;51.296;16.924;2023-06-24T11:34:35;9.20;;;7.63;;
49458;SDS011;35354;51.296;16.924;2023-06-24T11:37:11;9.85;;;8.85;;
49458;SDS011;35354;51.296;16.924;2023-06-24T11:39:39;10.23;;;9.23;;
49458;SDS011;35354;51.296;16.924;2023-06-24T11:42:08;9.88;;;8.27;;
49458;SDS011;35354;51.296;16.924;2023-06-24T11:44:34;9.55;;;8.60;;
49458;SDS011;35354;51.296;16.924;2023-06-24T11:47:06;8.85;;;7.53;;
49458;SDS011;35354;51.296;16.924;2023-06-24T11:49:53;9.60;;;8.65;;
49458;SDS011;35354;51.296;16.924;2023-06-24T11:52:31;9.73;;;7.68;;
49458;SDS011;35354;51.296;16.924;2023-06-24T11:54:59;8.13;;;7.05;;
49458;SDS011;35354;51.296;16.924;2023-06-24T11:57:46;8.20;;;7.40;;
49458;SDS011;35354;51.296;16.924;2023-06-24T12:00:24;8.18;;;7.38;;
49458;SDS011;35354;51.296;16.924;2023-06-24T12:02:52;7.55;;;6.90;;
49458;SDS011;35354;51.296;16.924;2023-06-24T12:05:25;8.82;;;8.02;;
49458;SDS011;35354;51.296;16.924;2023-06-24T12:07:57;9.52;;;8.13;;
49458;SDS011;35354;51.296;16.924;2023-06-24T12:10:26;11.23;;;7.80;;
49458;SDS011;35354;51.296;16.924;2023-06-24T12:12:53;9.07;;;7.65;;
49458;SDS011;35354;51.296;16.924;2023-06-24T12:15:21;8.50;;;6.90;;
49458;SDS011;35354;51.296;16.924;2023-06-24T12:17:46;7.60;;;6.85;;
49458;SDS011;35354;51.296;16.924;2023-06-24T12:20:13;7.32;;;6.63;;
49458;SDS011;35354;51.296;16.924;2023-06-24T12:22:39;7.93;;;7.22;;
49458;SDS011;35354;51.296;16.924;2023-06-24T12:25:05;7.72;;;7.00;;
49458;SDS011;35354;51.296;16.924;2023-06-24T12:27:30;7.32;;;6.70;;
49458;SDS011;35354;51.296;16.924;2023-06-24T12:29:56;7.20;;;6.47;;
49458;SDS011;35354;51.296;16.924;2023-06-24T12:32:21;6.85;;;6.15;;
49458;SDS011;35354;51.296;16.924;2023-06-24T12:34:46;7.45;;;6.18;;
49458;SDS011;35354;51.296;16.924;2023-06-24T12:37:12;9.15;;;7.10;;
49458;SDS011;35354;51.296;16.924;2023-06-24T12:39:37;7.80;;;7.10;;
49458;SDS011;35354;51.296;16.924;2023-06-24T12:42:02;7.82;;;6.63;;
49458;SDS011;35354;51.296;16.924;2023-06-24T12:44:28;8.90;;;7.40;;
49458;SDS011;35354;51.296;16.924;2023-06-24T12:46:53;7.38;;;6.72;;
49458;SDS011;35354;51.296;16.924;2023-06-24T12:49:18;6.75;;;6.15;;
49458;SDS011;35354;51.296;16.924;2023-06-24T12:51:44;9.27;;;7.20;;
49458;SDS011;35354;51.296;16.924;2023-06-24T12:54:09;6.93;;;6.32;;
49458;SDS011;35354;51.296;16.924;2023-06-24T12:56:34;7.50;;;6.80;;
49458;SDS011;35354;51.296;16.924;2023-06-24T12:59:00;7.18;;;6.47;;
49458;SDS011;35354;51.296;16.924;2023-06-24T13:01:25;9.07;;;6.70;;
49458;SDS011;35354;51.296;16.924;2023-06-24T13:03:51;7.55;;;6.85;;
49458;SDS011;35354;51.296;16.924;2023-06-24T13:06:16;8.13;;;7.03;;
49458;SDS011;35354;51.296;16.924;2023-06-24T13:08:41;8.35;;;6.88;;
49458;SDS011;35354;51.296;16.924;2023-06-24T13:11:08;7.18;;;6.47;;
49458;SDS011;35354;51.296;16.924;2023-06-24T13:13:34;7.57;;;6.50;;
49458;SDS011;35354;51.296;16.924;2023-06-24T13:15:59;9.80;;;6.68;;
49458;SDS011;35354;51.296;16.924;2023-06-24T13:18:24;7.30;;;6.50;;
49458;SDS011;35354;51.296;16.924;2023-06-24T13:20:49;7.55;;;6.80;;
49458;SDS011;35354;51.296;16.924;2023-06-24T13:23:15;8.70;;;6.25;;
49458;SDS011;35354;51.296;16.924;2023-06-24T13:25:40;7.55;;;6.70;;
49458;SDS011;35354;51.296;16.924;2023-06-24T13:28:05;7.50;;;6.50;;
49458;SDS011;35354;51.296;16.924;2023-06-24T13:30:31;7.70;;;6.68;;
49458;SDS011;35354;51.296;16.924;2023-06-24T13:32:56;7.93;;;7.20;;
49458;SDS011;35354;51.296;16.924;2023-06-24T13:35:22;7.20;;;6.50;;
49458;SDS011;35354;51.296;16.924;2023-06-24T13:37:47;8.18;;;7.00;;
49458;SDS011;35354;51.296;16.924;2023-06-24T13:40:12;7.22;;;6.63;;
49458;SDS011;35354;51.296;16.924;2023-06-24T13:42:38;6.93;;;6.32;;
49458;SDS011;35354;51.296;16.924;2023-06-24T13:45:03;7.80;;;7.00;;
49458;SDS011;35354;51.296;16.924;2023-06-24T13:47:29;7.97;;;7.20;;
49458;SDS011;35354;51.296;16.924;2023-06-24T13:49:54;7.18;;;6.47;;
49458;SDS011;35354;51.296;16.924;2023-06-24T13:52:20;8.57;;;7.13;;
49458;SDS011;35354;51.296;16.924;2023-06-24T13:54:46;7.63;;;6.75;;
49458;SDS011;35354;51.296;16.924;2023-06-24T13:57:11;7.30;;;6.50;;
49458;SDS011;35354;51.296;16.924;2023-06-24T13:59:37;7.53;;;6.82;;
49458;SDS011;35354;51.296;16.924;2023-06-24T14:02:03;7.47;;;6.78;;
49458;SDS011;35354;51.296;16.924;2023-06-24T14:04:28;7.50;;;6.78;;
49458;SDS011;35354;51.296;16.924;2023-06-24T14:06:54;8.35;;;7.35;;
49458;SDS011;35354;51.296;16.924;2023-06-24T14:09:19;7.57;;;6.95;;
49458;SDS011;35354;51.296;16.924;2023-06-24T14:11:44;6.53;;;5.93;;
49458;SDS011;35354;51.296;16.924;2023-06-24T14:14:10;8.75;;;7.78;;
49458;SDS011;35354;51.296;16.924;2023-06-24T14:16:35;7.38;;;6.75;;
49458;SDS011;35354;51.296;16.924;2023-06-24T14:19:00;8.05;;;7.15;;
49458;SDS011;35354;51.296;16.924;2023-06-24T14:21:26;7.60;;;6.90;;
49458;SDS011;35354;51.296;16.924;2023-06-24T14:23:51;8.23;;;6.75;;
49458;SDS011;35354;51.296;16.924;2023-06-24T14:26:16;7.97;;;6.90;;
49458;SDS011;35354;51.296;16.924;2023-06-24T14:28:42;8.75;;;7.07;;
49458;SDS011;35354;51.296;16.924;2023-06-24T14:31:07;8.15;;;7.40;;
49458;SDS011;35354;51.296;16.924;2023-06-24T14:33:32;8.70;;;7.80;;
49458;SDS011;35354;51.296;16.924;2023-06-24T14:35:58;7.38;;;6.68;;
49458;SDS011;35354;51.296;16.924;2023-06-24T14:38:23;8.13;;;7.30;;
49458;SDS011;35354;51.296;16.924;2023-06-24T14:40:48;7.55;;;6.85;;
49458;SDS011;35354;51.296;16.924;2023-06-24T14:43:14;8.80;;;7.75;;
49458;SDS011;35354;51.296;16.924;2023-06-24T14:45:39;7.55;;;6.85;;
49458;SDS011;35354;51.296;16.924;2023-06-24T14:48:05;8.73;;;7.10;;
49458;SDS011;35354;51.296;16.924;2023-06-24T14:50:32;7.90;;;7.20;;